createdAt,value
2022-11-12T00:01:20.594Z,24.40
2022-11-12T00:04:10.894Z,24.50
2022-11-12T00:07:00.936Z,24.50
2022-11-12T00:09:50.678Z,24.50
2022-11-12T00:12:40.375Z,24.80
2022-11-12T00:15:30.090Z,24.80
2022-11-12T00:18:19.931Z,25.00
2022-11-12T00:21:09.538Z,25.00
2022-11-12T00:23:59.776Z,25.20
2022-11-12T00:26:50.234Z,25.30
2022-11-12T00:29:40.738Z,25.50
2022-11-12T00:32:30.748Z,25.50
2022-11-12T00:35:20.752Z,25.40
2022-11-12T00:38:10.399Z,25.40
2022-11-12T00:41:03.150Z,25.50
2022-11-12T00:43:52.926Z,25.50
2022-11-12T00:46:42.572Z,25.70
2022-11-12T00:49:32.363Z,25.70
2022-11-12T00:52:22.368Z,25.80
2022-11-12T00:55:12.755Z,25.80
2022-11-12T00:58:02.808Z,26.10
2022-11-12T01:00:52.764Z,26.30
2022-11-12T01:03:43.923Z,26.50
2022-11-12T01:06:34.129Z,26.50
2022-11-12T01:09:24.550Z,26.40
2022-11-12T01:12:14.597Z,26.40
2022-11-12T01:15:04.950Z,26.50
2022-11-12T01:17:55.341Z,26.80
2022-11-12T01:20:45.714Z,26.80
2022-11-12T01:23:37.094Z,26.90
2022-11-12T01:26:29.837Z,27.10
2022-11-12T01:29:20.400Z,27.20
2022-11-12T01:32:11.060Z,27.40
2022-11-12T01:35:01.481Z,27.30
2022-11-12T01:37:51.885Z,27.30
2022-11-12T01:40:42.026Z,27.70
2022-11-12T01:43:32.465Z,27.60
2022-11-12T01:46:30.639Z,27.40
2022-11-12T01:49:41.899Z,27.50
2022-11-12T01:52:45.034Z,27.40
2022-11-12T01:55:39.068Z,28.00
2022-11-12T01:58:31.697Z,28.20
2022-11-12T02:01:21.386Z,28.40
2022-11-12T02:04:12.038Z,28.40
2022-11-12T02:07:03.572Z,28.30
2022-11-12T02:09:54.199Z,28.20
2022-11-12T02:13:05.481Z,28.50
2022-11-12T02:15:56.300Z,28.50
2022-11-12T02:18:46.030Z,28.60
2022-11-12T02:21:35.927Z,28.90
2022-11-12T02:24:35.931Z,29.20
2022-11-12T02:27:26.366Z,29.10
2022-11-12T02:30:16.017Z,29.20
2022-11-12T02:33:06.359Z,29.20
2022-11-12T02:35:56.368Z,29.40
2022-11-12T02:38:46.448Z,29.40
2022-11-12T02:41:36.601Z,29.50
2022-11-12T02:44:26.873Z,29.60
2022-11-12T02:47:17.232Z,29.80
2022-11-12T02:50:08.046Z,29.70
2022-11-12T02:52:57.966Z,29.60
2022-11-12T02:55:47.672Z,30.10
2022-11-12T02:58:37.342Z,29.80
2022-11-12T03:01:27.363Z,30.00
2022-11-12T03:04:17.632Z,30.00
2022-11-12T03:07:08.204Z,30.00
2022-11-12T03:09:58.469Z,30.40
2022-11-12T03:12:48.992Z,30.60
2022-11-12T03:15:39.403Z,31.00
2022-11-12T03:18:30.260Z,30.90
2022-11-12T03:21:20.450Z,30.60
2022-11-12T03:24:13.831Z,30.60
2022-11-12T03:27:03.984Z,30.70
2022-11-12T03:29:54.575Z,30.90
2022-11-12T03:32:44.812Z,31.30
2022-11-12T03:35:35.878Z,31.30
2022-11-12T03:38:27.952Z,31.20
2022-11-12T03:41:19.169Z,31.50
2022-11-12T03:44:09.449Z,31.90
2022-11-12T03:47:04.837Z,32.10
2022-11-12T03:49:55.581Z,32.20
2022-11-12T03:52:54.505Z,32.00
2022-11-12T03:55:44.871Z,32.00
2022-11-12T03:58:35.384Z,32.10
2022-11-12T04:01:31.396Z,32.10
2022-11-12T04:04:21.028Z,32.30
2022-11-12T04:07:30.812Z,32.40
2022-11-12T04:10:20.519Z,32.40
2022-11-12T04:13:29.790Z,32.50
2022-11-12T04:16:41.752Z,32.80
2022-11-12T04:19:51.863Z,32.80
2022-11-12T04:22:41.920Z,32.70
2022-11-12T04:25:51.529Z,32.70
2022-11-12T04:29:03.980Z,32.40
2022-11-12T04:32:01.154Z,32.90
2022-11-12T04:34:58.187Z,32.90
2022-11-12T04:37:49.280Z,32.90
2022-11-12T04:41:07.696Z,33.10
2022-11-12T04:44:25.588Z,33.30
2022-11-12T04:47:18.328Z,33.20
2022-11-12T04:50:24.949Z,33.60
2022-11-12T04:53:18.459Z,33.20
2022-11-12T04:56:26.973Z,33.30
2022-11-12T04:59:20.799Z,32.90
2022-11-12T05:02:13.652Z,33.20
2022-11-12T05:05:05.719Z,33.10
2022-11-12T05:07:59.094Z,33.70
2022-11-12T05:10:54.533Z,34.00
2022-11-12T05:13:44.975Z,33.80
2022-11-12T05:16:42.692Z,34.10
2022-11-12T05:19:42.802Z,33.90
2022-11-12T05:22:45.556Z,34.30
2022-11-12T05:25:48.298Z,34.30
2022-11-12T05:28:43.877Z,34.60
2022-11-12T05:31:37.953Z,34.50
2022-11-12T05:34:31.759Z,34.40
2022-11-12T05:37:21.967Z,34.50
2022-11-12T05:40:12.353Z,34.30
2022-11-12T05:43:02.416Z,34.70
2022-11-12T05:45:52.470Z,35.00
2022-11-12T05:48:42.633Z,34.60
2022-11-12T05:51:32.793Z,34.50
2022-11-12T05:54:22.606Z,34.70
2022-11-12T05:57:12.660Z,35.10
2022-11-12T06:00:03.044Z,35.20
2022-11-12T06:02:53.492Z,35.30
2022-11-12T06:05:43.504Z,35.30
2022-11-12T06:08:33.176Z,34.90
2022-11-12T06:11:23.171Z,35.60
2022-11-12T06:14:13.695Z,35.60
2022-11-12T06:17:04.078Z,35.20
2022-11-12T06:19:53.764Z,35.00
2022-11-12T06:22:43.697Z,35.50
2022-11-12T06:25:33.551Z,35.80
2022-11-12T06:28:23.539Z,35.80
2022-11-12T06:31:13.677Z,35.70
2022-11-12T06:34:04.936Z,35.90
2022-11-12T06:36:54.895Z,35.80
2022-11-12T06:39:46.519Z,35.50
2022-11-12T06:42:46.665Z,35.80
2022-11-12T06:45:40.591Z,35.90
2022-11-12T06:48:44.676Z,35.80
2022-11-12T06:51:59.092Z,35.80
2022-11-12T06:54:52.535Z,36.10
2022-11-12T06:57:47.399Z,36.30
2022-11-12T07:00:44.772Z,36.40
2022-11-12T07:03:50.149Z,35.80
2022-11-12T07:06:47.587Z,35.90
2022-11-12T07:09:40.821Z,36.10
2022-11-12T07:12:36.591Z,36.20
2022-11-12T07:18:32.132Z,36.00
2022-11-12T07:21:36.715Z,36.10
2022-11-12T07:24:30.009Z,36.30
2022-11-12T07:27:22.647Z,35.80
2022-11-12T07:30:22.382Z,35.50
2022-11-12T07:33:12.633Z,35.90
2022-11-12T07:36:13.346Z,35.90
2022-11-12T07:39:06.870Z,35.70
2022-11-12T07:42:02.715Z,36.20
2022-11-12T07:44:59.526Z,35.60
2022-11-12T07:51:33.558Z,35.70
2022-11-12T07:54:32.860Z,35.40
2022-11-12T07:57:29.015Z,35.30
2022-11-12T08:00:34.189Z,35.60
2022-11-12T08:03:28.374Z,36.00
2022-11-12T08:06:22.729Z,35.90
2022-11-12T08:09:17.361Z,35.80
2022-11-12T08:12:08.113Z,35.50
2022-11-12T08:15:07.386Z,35.60
2022-11-12T08:18:10.615Z,35.40
2022-11-12T08:21:18.621Z,35.30
2022-11-12T08:24:12.951Z,35.40
2022-11-12T08:27:06.273Z,35.20
2022-11-12T08:30:03.732Z,35.30
2022-11-12T08:33:17.757Z,35.00
2022-11-12T08:36:13.963Z,34.70
2022-11-12T08:39:22.060Z,34.80
2022-11-12T08:42:12.261Z,34.90
2022-11-12T08:45:07.419Z,35.30
2022-11-12T08:48:11.225Z,35.50
2022-11-12T08:51:15.036Z,35.40
2022-11-12T08:54:05.715Z,35.30
2022-11-12T08:57:04.723Z,35.30
2022-11-12T08:59:57.971Z,35.40
2022-11-12T09:02:59.574Z,35.00
2022-11-12T09:05:54.899Z,35.00
2022-11-12T09:08:49.832Z,35.10
2022-11-12T09:11:45.679Z,35.00
2022-11-12T09:14:47.564Z,34.40
2022-11-12T09:17:46.577Z,34.50
2022-11-12T09:20:37.847Z,34.30
2022-11-12T09:23:47.551Z,34.20
2022-11-12T09:26:40.310Z,34.00
2022-11-12T09:29:37.384Z,33.90
2022-11-12T09:32:33.442Z,34.00
2022-11-12T09:35:28.054Z,34.30
2022-11-12T09:38:23.390Z,34.10
2022-11-12T09:41:56.590Z,34.20
2022-11-12T09:48:12.459Z,33.90
2022-11-12T09:51:33.304Z,33.80
2022-11-12T09:54:34.540Z,33.90
2022-11-12T09:57:33.125Z,34.00
2022-11-12T10:00:33.691Z,33.90
2022-11-12T10:07:29.134Z,33.60
2022-11-12T10:10:58.574Z,33.60
2022-11-12T10:14:17.763Z,33.40
2022-11-12T10:20:59.218Z,33.20
2022-11-12T10:24:00.462Z,33.00
2022-11-12T10:26:54.178Z,32.80
2022-11-12T10:30:09.578Z,32.70
2022-11-12T10:33:05.568Z,32.50
2022-11-12T10:39:04.715Z,32.30
2022-11-12T10:42:13.802Z,32.20
2022-11-12T10:45:24.166Z,32.10
2022-11-12T10:48:37.537Z,32.10
2022-11-12T10:51:33.219Z,32.00
2022-11-12T10:54:56.558Z,32.10
2022-11-12T10:57:56.023Z,32.00
2022-11-12T11:01:33.571Z,31.90
2022-11-12T11:04:38.979Z,31.80
2022-11-12T11:07:36.039Z,31.80
2022-11-12T11:10:37.557Z,31.70
2022-11-12T11:13:36.548Z,31.60
2022-11-12T11:16:33.019Z,31.50
2022-11-12T11:19:29.572Z,31.30
2022-11-12T11:22:42.709Z,31.20
2022-11-12T11:25:49.584Z,31.40
2022-11-12T11:29:04.277Z,31.40
2022-11-12T11:32:37.195Z,31.40
2022-11-12T11:36:13.559Z,31.30
2022-11-12T11:39:33.115Z,31.30
2022-11-12T11:43:08.918Z,31.30
2022-11-12T11:46:38.379Z,31.10
2022-11-12T11:50:06.618Z,30.80
2022-11-12T12:00:28.363Z,30.90
2022-11-12T12:03:49.908Z,31.10
2022-11-12T12:11:06.881Z,31.10
2022-11-12T12:14:35.519Z,31.00
2022-11-12T12:17:58.857Z,30.90
2022-11-12T12:21:24.834Z,30.70
2022-11-12T12:24:27.408Z,30.50
2022-11-12T12:27:36.852Z,30.60
2022-11-12T12:30:34.145Z,30.60
2022-11-12T12:33:37.596Z,30.60
2022-11-12T12:36:50.038Z,30.60
2022-11-12T12:40:06.921Z,30.50
2022-11-12T12:43:24.130Z,30.40
2022-11-12T12:46:24.704Z,29.90
2022-11-12T12:49:37.973Z,29.60
2022-11-12T12:52:29.971Z,29.30
2022-11-12T12:55:42.238Z,29.40
2022-11-12T12:58:43.337Z,29.70
2022-11-12T13:01:36.629Z,29.80
2022-11-12T13:05:00.367Z,30.00
2022-11-12T13:07:53.276Z,29.90
2022-11-12T13:10:54.363Z,29.70
2022-11-12T13:13:47.122Z,29.70
2022-11-12T13:17:17.044Z,29.70
2022-11-12T13:20:41.883Z,29.40
2022-11-12T13:24:18.424Z,29.60
2022-11-12T13:27:14.720Z,29.50
2022-11-12T13:30:07.048Z,29.40
2022-11-12T13:33:11.888Z,29.40
2022-11-12T13:36:36.298Z,29.30
2022-11-12T13:39:27.949Z,29.40
2022-11-12T13:42:41.258Z,29.40
2022-11-12T13:45:38.139Z,29.30
2022-11-12T13:51:48.664Z,29.00
2022-11-12T13:54:42.576Z,29.00
2022-11-12T13:57:37.070Z,28.90
2022-11-12T14:00:34.544Z,29.00
2022-11-12T14:03:29.679Z,28.90
2022-11-12T14:06:43.173Z,28.90
2022-11-12T14:10:09.176Z,28.90
2022-11-12T14:13:38.819Z,28.90
2022-11-12T14:17:05.652Z,28.70
2022-11-12T14:20:35.963Z,28.80
2022-11-12T14:23:27.992Z,28.90
2022-11-12T14:26:45.422Z,28.70
2022-11-12T14:29:39.884Z,28.70
2022-11-12T14:32:43.300Z,28.60
2022-11-12T14:35:46.835Z,28.50
2022-11-12T14:39:00.421Z,28.40
2022-11-12T14:41:57.246Z,28.50
2022-11-12T14:44:47.857Z,28.50
2022-11-12T14:47:39.842Z,28.40
2022-11-12T14:50:40.418Z,28.20
2022-11-12T14:53:56.754Z,28.00
2022-11-12T14:56:51.608Z,27.30
2022-11-12T14:59:43.223Z,27.40
2022-11-12T15:02:53.867Z,27.30
2022-11-12T15:06:10.898Z,27.20
2022-11-12T15:09:09.972Z,26.80
2022-11-12T15:12:02.625Z,26.80
2022-11-12T15:14:57.691Z,26.80
2022-11-12T15:17:48.068Z,26.80
2022-11-12T15:20:38.763Z,26.80
2022-11-12T15:23:32.651Z,26.80
2022-11-12T15:26:43.858Z,26.90
2022-11-12T15:29:38.582Z,27.40
2022-11-12T15:32:39.432Z,27.40
2022-11-12T15:35:40.907Z,27.50
2022-11-12T15:38:41.441Z,27.50
2022-11-12T15:41:35.221Z,27.40
2022-11-12T15:44:26.339Z,27.20
2022-11-12T15:47:24.892Z,26.90
2022-11-12T15:50:26.025Z,27.10
2022-11-12T15:53:21.930Z,27.10
2022-11-12T15:56:18.251Z,27.30
2022-11-12T15:59:09.079Z,27.30
2022-11-12T16:02:00.644Z,27.30
2022-11-12T16:04:51.412Z,27.40
2022-11-12T16:07:42.870Z,27.30
2022-11-12T16:10:34.350Z,27.10
2022-11-12T16:13:37.332Z,26.80
2022-11-12T16:16:27.217Z,26.60
2022-11-12T16:19:18.407Z,26.50
2022-11-12T16:22:14.183Z,26.30
2022-11-12T16:25:07.255Z,26.20
2022-11-12T16:28:01.955Z,26.00
2022-11-12T16:30:53.793Z,26.00
2022-11-12T16:33:46.379Z,26.20
2022-11-12T16:36:38.192Z,26.50
2022-11-12T16:39:28.913Z,26.60
2022-11-12T16:42:19.288Z,26.60
2022-11-12T16:45:09.510Z,26.80
2022-11-12T16:48:01.555Z,26.80
2022-11-12T16:50:52.182Z,26.80
2022-11-12T16:53:43.048Z,26.80
2022-11-12T16:56:33.260Z,26.50
2022-11-12T16:59:24.020Z,26.20
2022-11-12T17:02:17.927Z,26.20
2022-11-12T17:05:12.664Z,25.90
2022-11-12T17:08:04.841Z,26.00
2022-11-12T17:10:54.763Z,26.10
2022-11-12T17:13:49.937Z,26.10
2022-11-12T17:16:39.898Z,26.10
2022-11-12T17:19:30.904Z,25.80
2022-11-12T17:22:21.931Z,25.80
2022-11-12T17:25:11.802Z,25.90
2022-11-12T17:28:02.603Z,26.00
2022-11-12T17:30:55.878Z,25.90
2022-11-12T17:33:52.650Z,25.90
2022-11-12T17:36:44.044Z,25.90
2022-11-12T17:39:34.129Z,25.80
2022-11-12T17:42:25.613Z,25.90
2022-11-12T17:45:16.382Z,26.00
2022-11-12T17:48:09.360Z,25.90
2022-11-12T17:51:21.933Z,25.80
2022-11-12T17:54:12.653Z,25.80
2022-11-12T17:57:03.656Z,25.80
2022-11-12T17:59:53.656Z,25.90
2022-11-12T18:02:44.103Z,25.70
2022-11-12T18:05:34.886Z,25.70
2022-11-12T18:08:29.640Z,25.70
2022-11-12T18:11:19.901Z,25.70
2022-11-12T18:14:11.298Z,25.60
2022-11-12T18:17:03.037Z,25.60
2022-11-12T18:19:53.460Z,25.70
2022-11-12T18:22:45.056Z,25.70
2022-11-12T18:25:38.037Z,25.50
2022-11-12T18:28:29.239Z,25.60
2022-11-12T18:31:22.441Z,25.70
2022-11-12T18:34:17.004Z,25.80
2022-11-12T18:37:07.154Z,25.60
2022-11-12T18:39:57.002Z,25.60
2022-11-12T18:42:46.864Z,25.30
2022-11-12T18:45:37.234Z,25.20
2022-11-12T18:48:28.304Z,25.20
2022-11-12T18:51:20.809Z,25.20
2022-11-12T18:54:11.446Z,25.10
2022-11-12T18:57:01.739Z,25.00
2022-11-12T18:59:53.712Z,25.00
2022-11-12T19:02:44.869Z,24.90
2022-11-12T19:05:35.840Z,25.00
2022-11-12T19:08:28.319Z,24.90
2022-11-12T19:11:20.628Z,24.90
2022-11-12T19:14:11.143Z,25.10
2022-11-12T19:17:01.729Z,25.20
2022-11-12T19:19:52.347Z,25.10
2022-11-12T19:22:42.982Z,24.90
2022-11-12T19:25:33.262Z,24.90
2022-11-12T19:28:23.548Z,24.70
2022-11-12T19:31:20.837Z,24.80
2022-11-12T19:34:11.284Z,24.90
2022-11-12T19:40:13.017Z,24.70
2022-11-12T19:43:03.320Z,24.90
2022-11-12T19:45:56.235Z,24.90
2022-11-12T19:48:46.699Z,24.90
2022-11-12T19:51:36.950Z,25.00
2022-11-12T19:54:27.649Z,25.00
2022-11-12T19:57:17.489Z,25.00
2022-11-12T20:00:08.493Z,25.10
2022-11-12T20:02:59.714Z,25.20
2022-11-12T20:05:50.259Z,25.10
2022-11-12T20:08:40.489Z,24.90
2022-11-12T20:11:30.303Z,24.80
2022-11-12T20:14:20.337Z,24.70
2022-11-12T20:17:10.917Z,24.80
2022-11-12T20:20:01.307Z,24.70
2022-11-12T20:22:51.235Z,24.60
2022-11-12T20:25:41.482Z,24.60
2022-11-12T20:28:31.467Z,24.70
2022-11-12T20:31:22.759Z,24.50
2022-11-12T20:34:14.775Z,24.40
2022-11-12T20:37:05.084Z,24.50
2022-11-12T20:39:55.299Z,24.50
2022-11-12T20:42:45.727Z,24.30
2022-11-12T20:45:36.844Z,24.30
2022-11-12T20:48:27.663Z,24.20
2022-11-12T20:51:24.357Z,24.40
2022-11-12T20:54:15.416Z,24.30
2022-11-12T20:57:06.227Z,24.30
2022-11-12T20:59:56.502Z,24.50
2022-11-12T21:02:46.670Z,24.60
2022-11-12T21:05:37.037Z,24.60
2022-11-12T21:08:27.035Z,24.50
2022-11-12T21:11:20.573Z,24.70
2022-11-12T21:14:12.390Z,24.70
2022-11-12T21:17:02.387Z,24.40
2022-11-12T21:19:52.383Z,24.30
2022-11-12T21:22:42.752Z,24.30
2022-11-12T21:25:36.409Z,24.40
2022-11-12T21:28:27.145Z,24.50
2022-11-12T21:31:20.499Z,24.60
2022-11-12T21:34:12.593Z,24.30
2022-11-12T21:37:04.116Z,24.30
2022-11-12T21:39:54.306Z,24.30
2022-11-12T21:42:48.130Z,24.20
2022-11-12T21:45:38.651Z,24.10
2022-11-12T21:48:29.359Z,24.20
2022-11-12T21:51:20.407Z,24.10
2022-11-12T21:54:10.803Z,24.20
2022-11-12T21:57:00.774Z,24.10
2022-11-12T21:59:51.171Z,24.00
2022-11-12T22:02:41.263Z,24.10
2022-11-12T22:05:31.363Z,24.00
2022-11-12T22:08:21.372Z,24.10
2022-11-12T22:11:14.860Z,23.90
2022-11-12T22:14:04.834Z,24.10
2022-11-12T22:16:55.124Z,24.10
2022-11-12T22:19:45.264Z,24.10
2022-11-12T22:22:35.303Z,24.20
2022-11-12T22:25:24.899Z,24.30
2022-11-12T22:28:14.522Z,24.00
2022-11-12T22:31:13.611Z,23.90
2022-11-12T22:34:04.808Z,23.90
2022-11-12T22:36:54.779Z,24.00
2022-11-12T22:39:44.879Z,24.10
2022-11-12T22:42:35.294Z,23.90
2022-11-12T22:45:25.370Z,24.00
2022-11-12T22:48:15.381Z,24.00
2022-11-12T22:51:07.317Z,24.00
2022-11-12T22:54:02.326Z,24.00
2022-11-12T22:56:52.388Z,24.00
2022-11-12T22:59:42.767Z,24.00
2022-11-12T23:02:33.282Z,24.00
2022-11-12T23:05:23.858Z,24.00
2022-11-12T23:08:14.482Z,23.90
2022-11-12T23:11:10.509Z,23.80
2022-11-12T23:14:00.782Z,23.80
2022-11-12T23:16:51.468Z,23.70
2022-11-12T23:19:41.477Z,23.70
2022-11-12T23:22:31.720Z,23.60
2022-11-12T23:25:21.851Z,23.70
2022-11-12T23:28:11.930Z,23.70
2022-11-12T23:31:02.637Z,23.80
2022-11-12T23:33:55.507Z,23.90
2022-11-12T23:36:46.055Z,24.00
2022-11-12T23:39:36.452Z,24.00
2022-11-12T23:42:27.015Z,24.00
2022-11-12T23:45:17.518Z,23.90
2022-11-12T23:48:07.679Z,23.80
2022-11-12T23:51:14.879Z,23.80
2022-11-12T23:54:05.493Z,23.90
2022-11-12T23:56:55.283Z,24.20
2022-11-12T23:59:45.504Z,24.30
